sensor_id;sensor_type;location;lat;lon;timestamp;P1;durP1;ratioP1;P2;durP2;ratioP2
59115;SDS011;53564;51.930;4.640;2022-07-29T00:01:58;7.15;;;2.42;;
59115;SDS011;53564;51.930;4.640;2022-07-29T00:04:23;6.07;;;2.20;;
59115;SDS011;53564;51.930;4.640;2022-07-29T00:06:48;8.35;;;2.30;;
59115;SDS011;53564;51.930;4.640;2022-07-29T00:09:13;6.13;;;2.25;;
59115;SDS011;53564;51.930;4.640;2022-07-29T00:11:39;6.70;;;2.42;;
59115;SDS011;53564;51.930;4.640;2022-07-29T00:14:04;6.95;;;2.58;;
59115;SDS011;53564;51.930;4.640;2022-07-29T00:16:30;5.18;;;2.22;;
59115;SDS011;53564;51.930;4.640;2022-07-29T00:18:55;7.63;;;2.50;;
59115;SDS011;53564;51.930;4.640;2022-07-29T00:21:20;7.05;;;2.55;;
59115;SDS011;53564;51.930;4.640;2022-07-29T00:23:46;7.07;;;2.40;;
59115;SDS011;53564;51.930;4.640;2022-07-29T00:26:11;8.05;;;2.50;;
59115;SDS011;53564;51.930;4.640;2022-07-29T00:28:36;7.85;;;2.50;;
59115;SDS011;53564;51.930;4.640;2022-07-29T00:31:01;7.40;;;2.42;;
59115;SDS011;53564;51.930;4.640;2022-07-29T00:33:27;7.72;;;2.55;;
59115;SDS011;53564;51.930;4.640;2022-07-29T00:35:53;8.05;;;2.60;;
59115;SDS011;53564;51.930;4.640;2022-07-29T00:38:19;7.40;;;2.88;;
59115;SDS011;53564;51.930;4.640;2022-07-29T00:40:45;5.60;;;2.20;;
59115;SDS011;53564;51.930;4.640;2022-07-29T00:43:11;9.05;;;2.83;;
59115;SDS011;53564;51.930;4.640;2022-07-29T00:45:38;10.30;;;2.67;;
59115;SDS011;53564;51.930;4.640;2022-07-29T00:48:04;6.72;;;2.35;;
59115;SDS011;53564;51.930;4.640;2022-07-29T00:50:31;8.00;;;2.50;;
59115;SDS011;53564;51.930;4.640;2022-07-29T00:52:57;7.07;;;2.40;;
59115;SDS011;53564;51.930;4.640;2022-07-29T00:55:23;8.55;;;2.70;;
59115;SDS011;53564;51.930;4.640;2022-07-29T00:57:48;5.05;;;2.13;;
59115;SDS011;53564;51.930;4.640;2022-07-29T01:00:18;6.25;;;2.22;;
59115;SDS011;53564;51.930;4.640;2022-07-29T01:02:48;8.65;;;2.50;;
59115;SDS011;53564;51.930;4.640;2022-07-29T01:05:14;10.38;;;2.67;;
59115;SDS011;53564;51.930;4.640;2022-07-29T01:07:42;7.00;;;2.30;;
59115;SDS011;53564;51.930;4.640;2022-07-29T01:10:10;8.80;;;2.67;;
59115;SDS011;53564;51.930;4.640;2022-07-29T01:12:38;6.60;;;2.35;;
59115;SDS011;53564;51.930;4.640;2022-07-29T01:15:05;7.95;;;2.63;;
59115;SDS011;53564;51.930;4.640;2022-07-29T01:17:47;7.93;;;2.47;;
59115;SDS011;53564;51.930;4.640;2022-07-29T01:23:28;8.00;;;2.38;;
59115;SDS011;53564;51.930;4.640;2022-07-29T01:31:44;5.95;;;2.35;;
59115;SDS011;53564;51.930;4.640;2022-07-29T01:37:20;8.43;;;2.80;;
59115;SDS011;53564;51.930;4.640;2022-07-29T01:39:49;9.32;;;2.63;;
59115;SDS011;53564;51.930;4.640;2022-07-29T01:45:02;8.63;;;2.47;;
59115;SDS011;53564;51.930;4.640;2022-07-29T01:47:46;7.55;;;2.67;;
59115;SDS011;53564;51.930;4.640;2022-07-29T01:50:18;9.85;;;2.85;;
59115;SDS011;53564;51.930;4.640;2022-07-29T01:52:56;10.20;;;2.83;;
59115;SDS011;53564;51.930;4.640;2022-07-29T01:55:25;7.70;;;2.45;;
59115;SDS011;53564;51.930;4.640;2022-07-29T01:57:54;5.05;;;2.20;;
59115;SDS011;53564;51.930;4.640;2022-07-29T02:00:22;8.48;;;2.70;;
59115;SDS011;53564;51.930;4.640;2022-07-29T02:02:49;7.00;;;2.55;;
59115;SDS011;53564;51.930;4.640;2022-07-29T02:05:17;10.20;;;2.70;;
59115;SDS011;53564;51.930;4.640;2022-07-29T02:07:46;7.95;;;2.65;;
59115;SDS011;53564;51.930;4.640;2022-07-29T02:10:13;11.82;;;2.80;;
59115;SDS011;53564;51.930;4.640;2022-07-29T02:12:40;10.18;;;2.70;;
59115;SDS011;53564;51.930;4.640;2022-07-29T02:15:08;9.38;;;2.58;;
59115;SDS011;53564;51.930;4.640;2022-07-29T02:17:39;9.20;;;2.80;;
59115;SDS011;53564;51.930;4.640;2022-07-29T02:20:07;9.02;;;2.78;;
59115;SDS011;53564;51.930;4.640;2022-07-29T02:22:35;9.27;;;2.70;;
59115;SDS011;53564;51.930;4.640;2022-07-29T02:25:04;9.85;;;2.80;;
59115;SDS011;53564;51.930;4.640;2022-07-29T02:27:31;8.80;;;2.90;;
59115;SDS011;53564;51.930;4.640;2022-07-29T02:29:59;6.32;;;2.40;;
59115;SDS011;53564;51.930;4.640;2022-07-29T02:32:26;8.15;;;2.80;;
59115;SDS011;53564;51.930;4.640;2022-07-29T02:34:54;7.93;;;2.65;;
59115;SDS011;53564;51.930;4.640;2022-07-29T02:37:21;8.25;;;2.80;;
59115;SDS011;53564;51.930;4.640;2022-07-29T02:39:48;7.15;;;2.50;;
59115;SDS011;53564;51.930;4.640;2022-07-29T02:42:18;8.98;;;2.67;;
59115;SDS011;53564;51.930;4.640;2022-07-29T02:44:46;10.90;;;2.80;;
59115;SDS011;53564;51.930;4.640;2022-07-29T02:47:13;9.77;;;2.85;;
59115;SDS011;53564;51.930;4.640;2022-07-29T02:55:51;9.43;;;2.97;;
59115;SDS011;53564;51.930;4.640;2022-07-29T02:58:24;8.38;;;2.83;;
59115;SDS011;53564;51.930;4.640;2022-07-29T03:00:53;10.43;;;3.08;;
59115;SDS011;53564;51.930;4.640;2022-07-29T03:03:21;9.73;;;2.55;;
59115;SDS011;53564;51.930;4.640;2022-07-29T03:05:52;8.65;;;2.90;;
59115;SDS011;53564;51.930;4.640;2022-07-29T03:08:20;7.53;;;2.58;;
59115;SDS011;53564;51.930;4.640;2022-07-29T03:10:46;8.68;;;2.70;;
59115;SDS011;53564;51.930;4.640;2022-07-29T03:13:13;8.45;;;2.67;;
59115;SDS011;53564;51.930;4.640;2022-07-29T03:15:39;8.77;;;2.72;;
59115;SDS011;53564;51.930;4.640;2022-07-29T03:18:07;8.38;;;2.63;;
59115;SDS011;53564;51.930;4.640;2022-07-29T03:20:33;9.55;;;2.75;;
59115;SDS011;53564;51.930;4.640;2022-07-29T03:22:58;9.02;;;3.10;;
59115;SDS011;53564;51.930;4.640;2022-07-29T03:25:23;8.85;;;2.75;;
59115;SDS011;53564;51.930;4.640;2022-07-29T03:27:49;10.52;;;3.00;;
59115;SDS011;53564;51.930;4.640;2022-07-29T03:30:14;7.90;;;2.67;;
59115;SDS011;53564;51.930;4.640;2022-07-29T03:32:40;9.23;;;2.90;;
59115;SDS011;53564;51.930;4.640;2022-07-29T03:35:06;8.73;;;2.88;;
59115;SDS011;53564;51.930;4.640;2022-07-29T03:37:32;7.68;;;2.92;;
59115;SDS011;53564;51.930;4.640;2022-07-29T03:39:58;9.07;;;3.20;;
59115;SDS011;53564;51.930;4.640;2022-07-29T03:42:27;8.77;;;2.90;;
59115;SDS011;53564;51.930;4.640;2022-07-29T03:44:55;10.18;;;2.90;;
59115;SDS011;53564;51.930;4.640;2022-07-29T03:47:23;10.45;;;3.33;;
59115;SDS011;53564;51.930;4.640;2022-07-29T03:49:52;12.10;;;3.70;;
59115;SDS011;53564;51.930;4.640;2022-07-29T03:52:21;10.00;;;3.33;;
59115;SDS011;53564;51.930;4.640;2022-07-29T03:54:47;9.00;;;3.33;;
59115;SDS011;53564;51.930;4.640;2022-07-29T03:57:13;9.65;;;3.15;;
59115;SDS011;53564;51.930;4.640;2022-07-29T03:59:41;9.30;;;3.50;;
59115;SDS011;53564;51.930;4.640;2022-07-29T04:02:08;10.15;;;3.20;;
59115;SDS011;53564;51.930;4.640;2022-07-29T04:04:35;11.30;;;3.15;;
59115;SDS011;53564;51.930;4.640;2022-07-29T04:07:01;11.27;;;3.20;;
59115;SDS011;53564;51.930;4.640;2022-07-29T04:09:26;9.32;;;3.05;;
59115;SDS011;53564;51.930;4.640;2022-07-29T04:11:52;9.57;;;3.20;;
59115;SDS011;53564;51.930;4.640;2022-07-29T04:14:17;9.15;;;3.35;;
59115;SDS011;53564;51.930;4.640;2022-07-29T04:16:43;9.40;;;3.30;;
59115;SDS011;53564;51.930;4.640;2022-07-29T04:19:08;12.15;;;3.63;;
59115;SDS011;53564;51.930;4.640;2022-07-29T04:21:37;13.18;;;3.42;;
59115;SDS011;53564;51.930;4.640;2022-07-29T04:24:03;11.13;;;3.92;;
59115;SDS011;53564;51.930;4.640;2022-07-29T04:26:28;8.57;;;3.28;;
59115;SDS011;53564;51.930;4.640;2022-07-29T04:28:54;10.75;;;3.33;;
59115;SDS011;53564;51.930;4.640;2022-07-29T04:31:19;10.30;;;3.58;;
59115;SDS011;53564;51.930;4.640;2022-07-29T04:33:44;10.05;;;3.50;;
59115;SDS011;53564;51.930;4.640;2022-07-29T04:36:09;12.77;;;3.72;;
59115;SDS011;53564;51.930;4.640;2022-07-29T04:38:36;14.65;;;4.15;;
59115;SDS011;53564;51.930;4.640;2022-07-29T04:41:01;11.63;;;3.10;;
59115;SDS011;53564;51.930;4.640;2022-07-29T04:43:27;11.35;;;3.67;;
59115;SDS011;53564;51.930;4.640;2022-07-29T04:45:52;11.13;;;3.70;;
59115;SDS011;53564;51.930;4.640;2022-07-29T04:48:17;10.05;;;3.40;;
59115;SDS011;53564;51.930;4.640;2022-07-29T04:50:42;10.68;;;3.60;;
59115;SDS011;53564;51.930;4.640;2022-07-29T04:53:09;10.98;;;3.35;;
59115;SDS011;53564;51.930;4.640;2022-07-29T04:55:34;10.52;;;3.50;;
59115;SDS011;53564;51.930;4.640;2022-07-29T04:58:01;9.55;;;3.22;;
59115;SDS011;53564;51.930;4.640;2022-07-29T05:00:26;10.20;;;3.05;;
59115;SDS011;53564;51.930;4.640;2022-07-29T05:02:54;9.85;;;3.08;;
59115;SDS011;53564;51.930;4.640;2022-07-29T05:05:29;11.30;;;3.20;;
59115;SDS011;53564;51.930;4.640;2022-07-29T05:07:54;8.75;;;3.10;;
59115;SDS011;53564;51.930;4.640;2022-07-29T05:10:20;13.75;;;3.30;;
59115;SDS011;53564;51.930;4.640;2022-07-29T05:12:47;10.38;;;3.30;;
59115;SDS011;53564;51.930;4.640;2022-07-29T05:15:12;8.90;;;3.05;;
59115;SDS011;53564;51.930;4.640;2022-07-29T05:17:38;10.00;;;3.10;;
59115;SDS011;53564;51.930;4.640;2022-07-29T05:20:06;10.10;;;3.20;;
59115;SDS011;53564;51.930;4.640;2022-07-29T05:22:32;9.20;;;3.20;;
59115;SDS011;53564;51.930;4.640;2022-07-29T05:24:57;9.52;;;3.05;;
59115;SDS011;53564;51.930;4.640;2022-07-29T05:27:22;11.55;;;3.55;;
59115;SDS011;53564;51.930;4.640;2022-07-29T05:29:48;10.20;;;3.35;;
59115;SDS011;53564;51.930;4.640;2022-07-29T05:32:13;9.80;;;3.10;;
59115;SDS011;53564;51.930;4.640;2022-07-29T05:34:41;12.88;;;3.30;;
59115;SDS011;53564;51.930;4.640;2022-07-29T05:37:06;11.30;;;4.68;;
59115;SDS011;53564;51.930;4.640;2022-07-29T05:39:32;10.93;;;3.58;;
59115;SDS011;53564;51.930;4.640;2022-07-29T05:41:57;11.10;;;3.25;;
59115;SDS011;53564;51.930;4.640;2022-07-29T05:44:22;8.63;;;3.25;;
59115;SDS011;53564;51.930;4.640;2022-07-29T05:46:49;10.77;;;3.38;;
59115;SDS011;53564;51.930;4.640;2022-07-29T05:49:15;9.45;;;3.22;;
59115;SDS011;53564;51.930;4.640;2022-07-29T05:51:40;9.73;;;3.35;;
59115;SDS011;53564;51.930;4.640;2022-07-29T05:54:05;10.48;;;3.30;;
59115;SDS011;53564;51.930;4.640;2022-07-29T05:56:31;10.00;;;3.35;;
59115;SDS011;53564;51.930;4.640;2022-07-29T05:58:56;10.00;;;3.10;;
59115;SDS011;53564;51.930;4.640;2022-07-29T06:01:21;10.45;;;3.47;;
59115;SDS011;53564;51.930;4.640;2022-07-29T06:03:46;10.55;;;2.97;;
59115;SDS011;53564;51.930;4.640;2022-07-29T06:06:12;7.85;;;2.75;;
59115;SDS011;53564;51.930;4.640;2022-07-29T06:08:37;8.88;;;3.00;;
59115;SDS011;53564;51.930;4.640;2022-07-29T06:11:03;7.85;;;2.85;;
59115;SDS011;53564;51.930;4.640;2022-07-29T06:13:30;10.15;;;3.45;;
59115;SDS011;53564;51.930;4.640;2022-07-29T06:15:56;8.77;;;3.20;;
59115;SDS011;53564;51.930;4.640;2022-07-29T06:18:21;9.82;;;3.17;;
59115;SDS011;53564;51.930;4.640;2022-07-29T06:20:49;11.30;;;3.10;;
59115;SDS011;53564;51.930;4.640;2022-07-29T06:23:14;8.70;;;2.95;;
59115;SDS011;53564;51.930;4.640;2022-07-29T06:25:40;8.63;;;3.00;;
59115;SDS011;53564;51.930;4.640;2022-07-29T06:28:05;9.05;;;3.05;;
59115;SDS011;53564;51.930;4.640;2022-07-29T06:30:31;8.55;;;2.95;;
59115;SDS011;53564;51.930;4.640;2022-07-29T06:32:59;8.88;;;2.88;;
59115;SDS011;53564;51.930;4.640;2022-07-29T06:35:26;9.13;;;3.00;;
59115;SDS011;53564;51.930;4.640;2022-07-29T06:37:51;9.30;;;2.92;;
59115;SDS011;53564;51.930;4.640;2022-07-29T06:40:16;9.70;;;3.20;;
59115;SDS011;53564;51.930;4.640;2022-07-29T06:43:00;9.23;;;2.90;;
59115;SDS011;53564;51.930;4.640;2022-07-29T06:45:26;8.70;;;2.85;;
59115;SDS011;53564;51.930;4.640;2022-07-29T06:47:51;8.10;;;2.83;;
59115;SDS011;53564;51.930;4.640;2022-07-29T06:50:17;8.80;;;3.00;;
59115;SDS011;53564;51.930;4.640;2022-07-29T06:52:42;10.30;;;3.05;;
59115;SDS011;53564;51.930;4.640;2022-07-29T06:55:09;9.35;;;3.10;;
59115;SDS011;53564;51.930;4.640;2022-07-29T06:57:35;8.25;;;2.88;;
59115;SDS011;53564;51.930;4.640;2022-07-29T07:00:00;10.27;;;3.28;;
59115;SDS011;53564;51.930;4.640;2022-07-29T07:02:25;11.05;;;3.10;;
59115;SDS011;53564;51.930;4.640;2022-07-29T07:04:51;9.15;;;3.05;;
59115;SDS011;53564;51.930;4.640;2022-07-29T07:07:16;10.15;;;3.20;;
59115;SDS011;53564;51.930;4.640;2022-07-29T07:09:44;11.02;;;3.13;;
59115;SDS011;53564;51.930;4.640;2022-07-29T07:12:10;11.07;;;3.67;;
59115;SDS011;53564;51.930;4.640;2022-07-29T07:14:35;9.45;;;2.90;;
59115;SDS011;53564;51.930;4.640;2022-07-29T07:17:00;9.40;;;3.40;;
59115;SDS011;53564;51.930;4.640;2022-07-29T07:19:28;11.25;;;3.20;;
59115;SDS011;53564;51.930;4.640;2022-07-29T07:21:53;11.52;;;3.25;;
59115;SDS011;53564;51.930;4.640;2022-07-29T07:24:19;11.23;;;3.25;;
59115;SDS011;53564;51.930;4.640;2022-07-29T07:26:44;10.43;;;3.35;;
59115;SDS011;53564;51.930;4.640;2022-07-29T07:29:10;11.40;;;3.20;;
59115;SDS011;53564;51.930;4.640;2022-07-29T07:31:36;14.30;;;3.50;;
59115;SDS011;53564;51.930;4.640;2022-07-29T07:34:02;10.80;;;3.33;;
59115;SDS011;53564;51.930;4.640;2022-07-29T07:36:28;10.15;;;3.60;;
59115;SDS011;53564;51.930;4.640;2022-07-29T07:38:53;10.20;;;3.42;;
59115;SDS011;53564;51.930;4.640;2022-07-29T07:41:18;10.77;;;3.10;;
59115;SDS011;53564;51.930;4.640;2022-07-29T07:43:44;10.00;;;3.00;;
59115;SDS011;53564;51.930;4.640;2022-07-29T07:46:10;11.35;;;3.35;;
59115;SDS011;53564;51.930;4.640;2022-07-29T07:48:35;9.82;;;3.30;;
59115;SDS011;53564;51.930;4.640;2022-07-29T07:51:00;9.80;;;3.20;;
59115;SDS011;53564;51.930;4.640;2022-07-29T07:53:26;11.20;;;3.20;;
59115;SDS011;53564;51.930;4.640;2022-07-29T07:55:51;9.38;;;3.17;;
59115;SDS011;53564;51.930;4.640;2022-07-29T07:58:17;11.20;;;3.55;;
59115;SDS011;53564;51.930;4.640;2022-07-29T08:00:42;9.73;;;3.30;;
59115;SDS011;53564;51.930;4.640;2022-07-29T08:03:07;9.90;;;3.42;;
59115;SDS011;53564;51.930;4.640;2022-07-29T08:05:33;10.23;;;3.38;;
59115;SDS011;53564;51.930;4.640;2022-07-29T08:07:58;10.20;;;3.40;;
59115;SDS011;53564;51.930;4.640;2022-07-29T08:10:30;8.98;;;3.40;;
59115;SDS011;53564;51.930;4.640;2022-07-29T08:13:14;11.77;;;3.72;;
59115;SDS011;53564;51.930;4.640;2022-07-29T08:15:39;9.35;;;3.30;;
59115;SDS011;53564;51.930;4.640;2022-07-29T08:18:06;10.27;;;3.67;;
59115;SDS011;53564;51.930;4.640;2022-07-29T08:20:32;10.85;;;3.20;;
59115;SDS011;53564;51.930;4.640;2022-07-29T08:23:00;10.07;;;3.20;;
59115;SDS011;53564;51.930;4.640;2022-07-29T08:25:25;11.23;;;3.40;;
59115;SDS011;53564;51.930;4.640;2022-07-29T08:27:50;9.07;;;3.28;;
59115;SDS011;53564;51.930;4.640;2022-07-29T08:30:16;10.77;;;3.30;;
59115;SDS011;53564;51.930;4.640;2022-07-29T08:32:41;10.10;;;3.28;;
59115;SDS011;53564;51.930;4.640;2022-07-29T08:35:07;10.43;;;3.53;;
59115;SDS011;53564;51.930;4.640;2022-07-29T08:37:32;10.73;;;3.30;;
59115;SDS011;53564;51.930;4.640;2022-07-29T08:39:57;9.63;;;3.00;;
59115;SDS011;53564;51.930;4.640;2022-07-29T08:42:23;9.73;;;3.30;;
59115;SDS011;53564;51.930;4.640;2022-07-29T08:44:48;12.23;;;3.13;;
59115;SDS011;53564;51.930;4.640;2022-07-29T08:47:14;11.98;;;3.70;;
59115;SDS011;53564;51.930;4.640;2022-07-29T08:49:39;9.10;;;3.15;;
59115;SDS011;53564;51.930;4.640;2022-07-29T08:52:05;9.77;;;2.85;;
59115;SDS011;53564;51.930;4.640;2022-07-29T08:54:31;12.65;;;3.40;;
59115;SDS011;53564;51.930;4.640;2022-07-29T08:56:57;10.68;;;3.45;;
59115;SDS011;53564;51.930;4.640;2022-07-29T08:59:24;9.52;;;3.42;;
59115;SDS011;53564;51.930;4.640;2022-07-29T09:01:52;10.38;;;3.40;;
59115;SDS011;53564;51.930;4.640;2022-07-29T09:04:19;12.10;;;3.90;;
59115;SDS011;53564;51.930;4.640;2022-07-29T09:06:46;9.90;;;3.30;;
59115;SDS011;53564;51.930;4.640;2022-07-29T09:09:13;10.95;;;3.50;;
59115;SDS011;53564;51.930;4.640;2022-07-29T09:11:40;10.10;;;3.35;;
59115;SDS011;53564;51.930;4.640;2022-07-29T09:14:06;9.82;;;3.40;;
59115;SDS011;53564;51.930;4.640;2022-07-29T09:16:45;8.57;;;3.22;;
59115;SDS011;53564;51.930;4.640;2022-07-29T09:21:46;10.60;;;3.20;;
59115;SDS011;53564;51.930;4.640;2022-07-29T09:24:24;11.13;;;3.63;;
59115;SDS011;53564;51.930;4.640;2022-07-29T09:29:42;9.32;;;3.25;;
59115;SDS011;53564;51.930;4.640;2022-07-29T09:32:08;9.18;;;3.00;;
59115;SDS011;53564;51.930;4.640;2022-07-29T09:34:35;9.90;;;3.10;;
59115;SDS011;53564;51.930;4.640;2022-07-29T09:37:01;9.73;;;2.78;;
59115;SDS011;53564;51.930;4.640;2022-07-29T09:39:28;12.52;;;4.07;;
59115;SDS011;53564;51.930;4.640;2022-07-29T09:41:56;8.98;;;2.90;;
59115;SDS011;53564;51.930;4.640;2022-07-29T09:44:23;10.20;;;2.97;;
59115;SDS011;53564;51.930;4.640;2022-07-29T09:46:53;9.02;;;2.88;;
59115;SDS011;53564;51.930;4.640;2022-07-29T09:49:22;11.98;;;3.05;;
59115;SDS011;53564;51.930;4.640;2022-07-29T09:51:58;9.82;;;3.05;;
59115;SDS011;53564;51.930;4.640;2022-07-29T09:54:27;7.70;;;2.90;;
59115;SDS011;53564;51.930;4.640;2022-07-29T09:56:53;9.43;;;2.97;;
59115;SDS011;53564;51.930;4.640;2022-07-29T09:59:19;9.98;;;3.10;;
59115;SDS011;53564;51.930;4.640;2022-07-29T10:01:51;10.07;;;3.00;;
59115;SDS011;53564;51.930;4.640;2022-07-29T10:04:16;9.18;;;3.13;;
59115;SDS011;53564;51.930;4.640;2022-07-29T10:06:55;8.68;;;3.10;;
59115;SDS011;53564;51.930;4.640;2022-07-29T10:09:22;11.55;;;3.38;;
59115;SDS011;53564;51.930;4.640;2022-07-29T10:12:02;11.10;;;3.25;;
59115;SDS011;53564;51.930;4.640;2022-07-29T10:14:32;11.43;;;3.45;;
59115;SDS011;53564;51.930;4.640;2022-07-29T10:17:02;11.52;;;3.47;;
59115;SDS011;53564;51.930;4.640;2022-07-29T10:19:29;11.70;;;3.40;;
59115;SDS011;53564;51.930;4.640;2022-07-29T10:21:59;9.25;;;3.15;;
59115;SDS011;53564;51.930;4.640;2022-07-29T10:24:27;13.55;;;3.35;;
59115;SDS011;53564;51.930;4.640;2022-07-29T10:26:57;12.23;;;3.20;;
59115;SDS011;53564;51.930;4.640;2022-07-29T10:29:24;10.15;;;2.92;;
59115;SDS011;53564;51.930;4.640;2022-07-29T10:34:36;8.93;;;3.17;;
59115;SDS011;53564;51.930;4.640;2022-07-29T10:37:22;8.38;;;3.10;;
59115;SDS011;53564;51.930;4.640;2022-07-29T10:43:29;9.88;;;3.10;;
59115;SDS011;53564;51.930;4.640;2022-07-29T10:46:01;10.27;;;3.20;;
59115;SDS011;53564;51.930;4.640;2022-07-29T10:48:27;9.63;;;3.47;;
59115;SDS011;53564;51.930;4.640;2022-07-29T10:50:53;9.70;;;3.20;;
59115;SDS011;53564;51.930;4.640;2022-07-29T10:53:20;11.15;;;3.20;;
59115;SDS011;53564;51.930;4.640;2022-07-29T10:55:46;8.73;;;3.20;;
59115;SDS011;53564;51.930;4.640;2022-07-29T10:58:14;9.55;;;2.85;;
59115;SDS011;53564;51.930;4.640;2022-07-29T11:00:48;9.50;;;2.90;;
59115;SDS011;53564;51.930;4.640;2022-07-29T11:06:09;9.60;;;2.92;;
59115;SDS011;53564;51.930;4.640;2022-07-29T11:08:34;8.88;;;2.75;;
59115;SDS011;53564;51.930;4.640;2022-07-29T11:16:11;7.72;;;2.40;;
59115;SDS011;53564;51.930;4.640;2022-07-29T11:18:36;9.05;;;2.72;;
59115;SDS011;53564;51.930;4.640;2022-07-29T11:21:39;9.70;;;2.40;;
59115;SDS011;53564;51.930;4.640;2022-07-29T11:24:13;10.38;;;2.40;;
59115;SDS011;53564;51.930;4.640;2022-07-29T11:26:39;9.70;;;2.50;;
59115;SDS011;53564;51.930;4.640;2022-07-29T11:31:46;6.97;;;2.30;;
59115;SDS011;53564;51.930;4.640;2022-07-29T11:39:40;8.98;;;2.50;;
59115;SDS011;53564;51.930;4.640;2022-07-29T11:44:56;9.35;;;2.80;;
59115;SDS011;53564;51.930;4.640;2022-07-29T11:47:24;8.55;;;2.58;;
59115;SDS011;53564;51.930;4.640;2022-07-29T11:49:51;7.18;;;2.20;;
59115;SDS011;53564;51.930;4.640;2022-07-29T11:52:17;7.07;;;2.33;;
59115;SDS011;53564;51.930;4.640;2022-07-29T11:54:43;6.60;;;2.40;;
59115;SDS011;53564;51.930;4.640;2022-07-29T11:57:09;8.48;;;2.40;;
59115;SDS011;53564;51.930;4.640;2022-07-29T11:59:41;9.95;;;2.55;;
59115;SDS011;53564;51.930;4.640;2022-07-29T12:02:08;7.68;;;2.45;;
59115;SDS011;53564;51.930;4.640;2022-07-29T12:04:47;7.15;;;2.50;;
59115;SDS011;53564;51.930;4.640;2022-07-29T12:07:16;9.45;;;2.55;;
59115;SDS011;53564;51.930;4.640;2022-07-29T12:09:49;9.23;;;2.72;;
59115;SDS011;53564;51.930;4.640;2022-07-29T12:14:41;8.60;;;2.80;;
59115;SDS011;53564;51.930;4.640;2022-07-29T12:17:24;9.60;;;2.65;;
59115;SDS011;53564;51.930;4.640;2022-07-29T12:19:51;10.07;;;2.80;;
59115;SDS011;53564;51.930;4.640;2022-07-29T12:22:24;9.70;;;2.90;;
59115;SDS011;53564;51.930;4.640;2022-07-29T12:24:53;6.30;;;2.20;;
59115;SDS011;53564;51.930;4.640;2022-07-29T12:27:20;8.73;;;2.78;;
59115;SDS011;53564;51.930;4.640;2022-07-29T12:29:56;7.82;;;2.45;;
59115;SDS011;53564;51.930;4.640;2022-07-29T12:32:22;9.85;;;2.80;;
59115;SDS011;53564;51.930;4.640;2022-07-29T12:34:48;8.45;;;2.50;;
59115;SDS011;53564;51.930;4.640;2022-07-29T12:37:14;9.57;;;2.90;;
59115;SDS011;53564;51.930;4.640;2022-07-29T12:39:39;8.63;;;2.70;;
59115;SDS011;53564;51.930;4.640;2022-07-29T12:42:11;9.25;;;2.50;;
59115;SDS011;53564;51.930;4.640;2022-07-29T12:44:48;8.13;;;2.70;;
59115;SDS011;53564;51.930;4.640;2022-07-29T12:47:14;9.43;;;2.80;;
59115;SDS011;53564;51.930;4.640;2022-07-29T12:49:41;12.30;;;3.00;;
59115;SDS011;53564;51.930;4.640;2022-07-29T12:54:50;8.73;;;2.67;;
59115;SDS011;53564;51.930;4.640;2022-07-29T12:57:16;10.07;;;3.05;;
59115;SDS011;53564;51.930;4.640;2022-07-29T12:59:41;8.38;;;2.53;;
59115;SDS011;53564;51.930;4.640;2022-07-29T13:02:07;11.60;;;2.65;;
59115;SDS011;53564;51.930;4.640;2022-07-29T13:04:54;9.75;;;2.90;;
59115;SDS011;53564;51.930;4.640;2022-07-29T13:07:23;9.95;;;2.80;;
59115;SDS011;53564;51.930;4.640;2022-07-29T13:09:51;9.98;;;2.60;;
59115;SDS011;53564;51.930;4.640;2022-07-29T13:12:17;6.68;;;2.40;;
59115;SDS011;53564;51.930;4.640;2022-07-29T13:14:43;8.38;;;2.72;;
59115;SDS011;53564;51.930;4.640;2022-07-29T13:17:15;6.20;;;2.20;;
59115;SDS011;53564;51.930;4.640;2022-07-29T13:19:43;8.25;;;2.50;;
59115;SDS011;53564;51.930;4.640;2022-07-29T13:22:13;11.20;;;3.05;;
59115;SDS011;53564;51.930;4.640;2022-07-29T13:24:47;8.68;;;2.80;;
59115;SDS011;53564;51.930;4.640;2022-07-29T13:27:13;9.80;;;2.63;;
59115;SDS011;53564;51.930;4.640;2022-07-29T13:29:40;11.05;;;2.92;;
59115;SDS011;53564;51.930;4.640;2022-07-29T13:32:05;14.43;;;3.42;;
59115;SDS011;53564;51.930;4.640;2022-07-29T13:34:31;8.10;;;2.78;;
59115;SDS011;53564;51.930;4.640;2022-07-29T13:36:56;11.13;;;2.85;;
59115;SDS011;53564;51.930;4.640;2022-07-29T13:39:21;9.30;;;2.67;;
59115;SDS011;53564;51.930;4.640;2022-07-29T13:41:46;9.03;;;2.90;;
59115;SDS011;53564;51.930;4.640;2022-07-29T13:44:12;9.40;;;2.70;;
59115;SDS011;53564;51.930;4.640;2022-07-29T13:46:37;11.75;;;2.95;;
59115;SDS011;53564;51.930;4.640;2022-07-29T13:49:02;8.90;;;2.40;;
59115;SDS011;53564;51.930;4.640;2022-07-29T13:51:27;8.30;;;2.37;;
59115;SDS011;53564;51.930;4.640;2022-07-29T13:53:53;9.85;;;2.58;;
59115;SDS011;53564;51.930;4.640;2022-07-29T13:56:18;13.15;;;3.47;;
59115;SDS011;53564;51.930;4.640;2022-07-29T13:58:43;9.75;;;2.75;;
59115;SDS011;53564;51.930;4.640;2022-07-29T14:01:09;11.85;;;3.08;;
59115;SDS011;53564;51.930;4.640;2022-07-29T14:03:34;9.30;;;2.75;;
59115;SDS011;53564;51.930;4.640;2022-07-29T14:06:01;11.23;;;2.80;;
59115;SDS011;53564;51.930;4.640;2022-07-29T14:08:26;8.30;;;2.72;;
59115;SDS011;53564;51.930;4.640;2022-07-29T14:10:52;8.80;;;2.92;;
59115;SDS011;53564;51.930;4.640;2022-07-29T14:13:17;8.95;;;3.08;;
59115;SDS011;53564;51.930;4.640;2022-07-29T14:15:42;15.88;;;3.20;;
59115;SDS011;53564;51.930;4.640;2022-07-29T14:18:08;11.45;;;2.80;;
59115;SDS011;53564;51.930;4.640;2022-07-29T14:20:33;8.20;;;2.83;;
59115;SDS011;53564;51.930;4.640;2022-07-29T14:22:58;10.20;;;2.85;;
59115;SDS011;53564;51.930;4.640;2022-07-29T14:25:23;8.10;;;2.40;;
59115;SDS011;53564;51.930;4.640;2022-07-29T14:27:49;12.03;;;2.80;;
59115;SDS011;53564;51.930;4.640;2022-07-29T14:30:14;9.98;;;2.75;;
59115;SDS011;53564;51.930;4.640;2022-07-29T14:32:40;22.73;;;4.32;;
59115;SDS011;53564;51.930;4.640;2022-07-29T14:35:05;6.15;;;2.53;;
59115;SDS011;53564;51.930;4.640;2022-07-29T14:37:31;11.00;;;2.88;;
59115;SDS011;53564;51.930;4.640;2022-07-29T14:39:57;9.70;;;2.65;;
59115;SDS011;53564;51.930;4.640;2022-07-29T14:42:26;8.65;;;2.50;;
59115;SDS011;53564;51.930;4.640;2022-07-29T14:44:51;9.25;;;2.83;;
59115;SDS011;53564;51.930;4.640;2022-07-29T14:47:17;11.63;;;2.78;;
59115;SDS011;53564;51.930;4.640;2022-07-29T14:49:42;8.63;;;2.60;;
59115;SDS011;53564;51.930;4.640;2022-07-29T14:52:07;8.73;;;2.70;;
59115;SDS011;53564;51.930;4.640;2022-07-29T14:54:32;10.63;;;2.78;;
59115;SDS011;53564;51.930;4.640;2022-07-29T14:56:58;8.43;;;2.50;;
59115;SDS011;53564;51.930;4.640;2022-07-29T14:59:23;8.23;;;2.72;;
59115;SDS011;53564;51.930;4.640;2022-07-29T15:01:48;16.17;;;2.95;;
59115;SDS011;53564;51.930;4.640;2022-07-29T15:04:14;8.05;;;2.67;;
59115;SDS011;53564;51.930;4.640;2022-07-29T15:06:42;10.57;;;3.15;;
59115;SDS011;53564;51.930;4.640;2022-07-29T15:09:08;9.18;;;2.63;;
59115;SDS011;53564;51.930;4.640;2022-07-29T15:11:33;9.88;;;2.72;;
59115;SDS011;53564;51.930;4.640;2022-07-29T15:13:59;11.50;;;2.60;;
59115;SDS011;53564;51.930;4.640;2022-07-29T15:16:24;9.32;;;2.50;;
59115;SDS011;53564;51.930;4.640;2022-07-29T15:18:49;10.07;;;2.28;;
59115;SDS011;53564;51.930;4.640;2022-07-29T15:21:15;9.10;;;2.72;;
59115;SDS011;53564;51.930;4.640;2022-07-29T15:23:40;6.00;;;2.40;;
59115;SDS011;53564;51.930;4.640;2022-07-29T15:26:05;10.25;;;2.90;;
59115;SDS011;53564;51.930;4.640;2022-07-29T15:28:30;14.65;;;4.65;;
59115;SDS011;53564;51.930;4.640;2022-07-29T15:30:56;6.95;;;2.50;;
59115;SDS011;53564;51.930;4.640;2022-07-29T15:33:21;8.95;;;2.83;;
59115;SDS011;53564;51.930;4.640;2022-07-29T15:35:46;12.38;;;2.90;;
59115;SDS011;53564;51.930;4.640;2022-07-29T15:38:12;6.38;;;2.33;;
59115;SDS011;53564;51.930;4.640;2022-07-29T15:40:37;11.40;;;2.88;;